Flight Track Log - Related Links

Times and Time Zones

All times are in EDT time to prevent confusion due to time zone crossing. See the TAM3844 flight status page for this flight to view local times or setup timezone preferences in your user account.

Time Position Orientation Groundspeed Altitude Reporting Facility
EDT Latitude Longitude Course Direction KTS MPH feet Rate Location/Type
Tue 05:24:00 PM -18.0277 -45.6791 314° West  Level Estimated
Tue 05:25:00 PM -17.9739 -45.7355 315° West  Level Estimated
Tue 05:26:00 PM -17.9201 -45.7919 315° West  Level Estimated
Tue 05:27:00 PM -17.8663 -45.8483 315° West  Level Estimated
Tue 05:28:00 PM -17.8124 -45.9047 315° West  Level Estimated
Tue 05:29:00 PM -17.7586 -45.9610 315° West  Level Estimated
Tue 05:30:00 PM -17.7047 -46.0173 315° West  Level Estimated
Tue 05:31:00 PM -17.6508 -46.0735 315° West  Level Estimated
Tue 05:32:00 PM -17.5969 -46.1297 315° West  Level Estimated
Tue 05:33:00 PM -17.5429 -46.1859 315° West  Level Estimated
Tue 05:34:00 PM -17.4890 -46.2421 315° West  Level Estimated
Tue 05:35:00 PM -17.4350 -46.2982 315° West  Level Estimated
Tue 05:36:00 PM -17.3811 -46.3543 315° West  Level Estimated
Tue 05:37:00 PM -17.3271 -46.4103 315° West  Level Estimated
Tue 05:38:00 PM -17.2731 -46.4664 315° West  Level Estimated
Tue 05:39:00 PM -17.2190 -46.5223 315° West  Level Estimated
Tue 05:40:00 PM -17.1650 -46.5783 315° West  Level Estimated
Tue 05:41:00 PM -17.1110 -46.6342 315° West  Level Estimated
Tue 05:42:00 PM -17.0569 -46.6901 315° West  Level Estimated
Tue 05:43:00 PM -17.0028 -46.7459 315° West  Level Estimated
Tue 05:44:00 PM -16.9487 -46.8018 315° West  Level Estimated
Tue 05:45:00 PM -16.8946 -46.8576 315° West  Level Estimated
Tue 05:46:00 PM -16.8405 -46.9133 315° West  Level Estimated
Tue 05:47:00 PM -16.7863 -46.9690 315° West  Level Estimated
Tue 05:48:00 PM -16.7322 -47.0247 315° West  Level Estimated
Tue 05:49:00 PM -16.6780 -47.0804 315° West  Level Estimated
Tue 05:50:00 PM -16.6238 -47.1360 315° West  Level Estimated
Tue 05:51:00 PM -16.5696 -47.1916 315° West  Level Estimated
Tue 05:52:00 PM -16.5154 -47.2472 315° West  Level Estimated
Tue 05:53:00 PM -16.4612 -47.3027 316° Northwest  Level Estimated
Tue 05:54:00 PM -16.4069 -47.3582 316° Northwest  Level Estimated
Tue 05:55:00 PM -16.3526 -47.4137 316° Northwest  Level Estimated
Tue 05:56:00 PM -16.2984 -47.4691 316° Northwest  Level Estimated
Tue 05:57:00 PM -16.2441 -47.5245 316° Northwest  Level Estimated
Tue 05:58:00 PM -16.1898 -47.5799 316° Northwest  Level Estimated
Tue 05:59:00 PM -16.1355 -47.6353 316° Northwest  Level Estimated
Tue 06:00:00 PM -16.0811 -47.6906 316° Northwest  Level Estimated
Tue 06:01:00 PM -16.0268 -47.7459 316° Northwest  Level Estimated
Tue 06:02:00 PM -15.9724 -47.8011 316° Northwest  Level Estimated
Tue 06:03:00 PM -15.9180 -47.8564 316° Northwest  Level Estimated
Tue 06:04:00 PM -15.8637 -47.9116 316° Northwest  Level Estimated
Tue 06:05:00 PM -15.8626 -47.9127 316° Northwest  Level Estimated
Tue 06:06:00 PM -15.8626 -47.9127 128° Southeast  Level Estimated
Tue 06:07:00 PM -15.8626 -47.9127 128° Southeast  Level Estimated
Tue 06:08:00 PM -15.8626 -47.9127 128° Southeast  Level Estimated
Tue 06:09:00 PM -15.8626 -47.9127 128° Southeast  Level Estimated
Tue 06:10:00 PM -15.8626 -47.9127 128° Southeast  Level Estimated
Tue 06:11:00 PM -15.8626 -47.9127 128° Southeast  Level Estimated
Tue 06:12:00 PM -15.8626 -47.9127 128° Southeast  Level Estimated
Tue 06:13:00 PM -15.8626 -47.9127 128° Southeast  Level Estimated
Tue 06:14:00 PM -15.8626 -47.9127 128° Southeast  Level Estimated
Tue 06:15:00 PM -15.8626 -47.9127 128° Southeast  Level Estimated
Tue 06:16:00 PM -15.8626 -47.9127 128° Southeast  Level Estimated
Tue 06:17:00 PM -15.8626 -47.9127 128° Southeast  Level Estimated
Tue 06:18:00 PM -15.8626 -47.9127 128° Southeast  Level Estimated
Tue 06:19:00 PM -15.8626 -47.9127 128° Southeast  Level Estimated
Tue 06:20:00 PM -15.8626 -47.9127 128° Southeast  Level Estimated

Login

Don't have an account? Register now (free) for customized features, flight alerts, and more!